Time;durP1;ratioP1;P1;durP2;ratioP2;P2;SDS_P1;SDS_P2;PMS_P1;PMS_P2;Temp;Humidity;BMP_temperature;BMP_pressure;BME280_temperature;BME280_humidity;BME280_pressure;Samples;Min_cycle;Max_cycle;Signal;HPM_P1;HPM_P2
2023/01/25 00:00:29;;;;;;;0.82;0.82;;;;;;;-3.07;92.13;100793.50;5075120;28;20075;-81
2023/01/25 00:02:57;;;;;;;0.80;0.80;;;;;;;-3.08;92.18;100783.91;5071174;28;20396;-81
2023/01/25 00:05:24;;;;;;;1.10;1.10;;;;;;;-3.10;92.03;100791.94;5072520;28;20048;-83
2023/01/25 00:07:51;;;;;;;0.80;0.80;;;;;;;-3.05;92.16;100788.94;5072505;28;20052;-83
2023/01/25 00:10:20;;;;;;;0.80;0.80;;;;;;;-3.05;91.91;100787.16;5072569;28;20044;-83
2023/01/25 00:12:47;;;;;;;0.90;0.90;;;;;;;-3.02;91.97;100777.31;5072075;28;20053;-83
2023/01/25 00:15:14;;;;;;;0.73;0.73;;;;;;;-3.02;91.65;100775.50;5070740;28;20051;-82
2023/01/25 00:17:41;;;;;;;1.00;1.00;;;;;;;-3.01;91.81;100768.41;5071974;28;20791;-82
2023/01/25 00:20:09;;;;;;;0.77;0.77;;;;;;;-3.05;91.50;100773.94;5072286;28;20044;-84
2023/01/25 00:22:36;;;;;;;0.70;0.70;;;;;;;-3.06;91.49;100764.34;5071846;28;20080;-83
2023/01/25 00:25:03;;;;;;;0.90;0.90;;;;;;;-3.07;91.58;100762.63;5072141;28;20055;-85
2023/01/25 00:27:31;;;;;;;1.00;1.00;;;;;;;-3.05;91.59;100768.66;5070829;28;20507;-85
2023/01/25 00:29:58;;;;;;;0.77;0.77;;;;;;;-3.07;91.69;100759.16;5072153;28;20452;-85
2023/01/25 00:32:36;;;;;;;0.90;0.90;;;;;;;-3.05;91.79;100763.38;5071860;28;20497;-85
2023/01/25 00:35:04;;;;;;;0.90;0.90;;;;;;;-3.06;91.83;100763.50;5081918;28;20090;-84
2023/01/25 00:37:39;;;;;;;0.85;0.85;;;;;;;-3.05;91.81;100760.72;5086700;28;20075;-87
2023/01/25 00:40:08;;;;;;;0.70;0.70;;;;;;;-3.05;92.08;100755.44;5091099;28;20055;-84
2023/01/25 00:42:38;;;;;;;0.90;0.90;;;;;;;-3.05;91.95;100758.09;5092182;28;20381;-83
2023/01/25 00:45:06;;;;;;;0.85;0.85;;;;;;;-3.02;92.19;100759.66;5091243;28;20083;-83
2023/01/25 00:47:37;;;;;;;0.70;0.70;;;;;;;-3.01;92.13;100753.44;5058260;28;20051;-82
2023/01/25 00:50:08;;;;;;;0.82;0.82;;;;;;;-3.03;92.19;100752.69;5074238;28;20046;-83
2023/01/25 00:52:39;;;;;;;0.80;0.80;;;;;;;-3.06;92.20;100747.66;5090380;28;20048;-82
2023/01/25 00:55:08;;;;;;;1.00;1.00;;;;;;;-3.05;92.25;100754.59;5071330;28;20535;-83
2023/01/25 00:57:38;;;;;;;0.63;0.63;;;;;;;-3.01;92.06;100749.94;5053956;28;20040;-83
2023/01/25 01:00:08;;;;;;;0.75;0.75;;;;;;;-3.01;91.81;100747.28;5069786;28;20102;-81
2023/01/25 01:02:35;;;;;;;0.90;0.90;;;;;;;-3.02;91.75;100737.69;5069133;28;20110;-80
2023/01/25 01:05:03;;;;;;;0.88;0.88;;;;;;;-3.06;91.67;100735.28;5070081;28;20565;-81
2023/01/25 01:07:31;;;;;;;0.80;0.80;;;;;;;-3.06;91.81;100737.09;5068524;28;20091;-81
2023/01/25 01:09:59;;;;;;;0.90;0.90;;;;;;;-3.09;91.69;100740.81;5033706;28;20079;-81
2023/01/25 01:12:27;;;;;;;0.70;0.70;;;;;;;-3.11;91.59;100732.16;5058657;28;20080;-82
2023/01/25 01:14:56;;;;;;;0.80;0.80;;;;;;;-3.09;91.95;100732.88;5063525;28;20048;-82
2023/01/25 01:17:23;;;;;;;0.80;0.80;;;;;;;-3.12;92.03;100735.72;5041205;28;20106;-82
2023/01/25 01:19:55;;;;;;;0.90;0.90;;;;;;;-3.07;92.23;100741.50;5040664;28;20118;-81
2023/01/25 01:22:23;;;;;;;0.80;0.80;;;;;;;-3.10;92.01;100731.19;5049283;28;20138;-81
2023/01/25 01:24:51;;;;;;;0.80;0.80;;;;;;;-3.08;91.95;100729.28;5059375;28;20052;-81
2023/01/25 01:27:21;;;;;;;0.90;0.90;;;;;;;-3.11;91.76;100728.66;5058272;28;20142;-81
2023/01/25 01:29:48;;;;;;;0.77;0.77;;;;;;;-3.10;91.95;100728.53;5057452;28;20535;-81
2023/01/25 01:32:15;;;;;;;1.00;1.00;;;;;;;-3.10;91.72;100728.53;5059953;28;20081;-80
2023/01/25 01:34:43;;;;;;;0.80;0.80;;;;;;;-3.17;91.83;100715.91;5057114;28;20110;-81
2023/01/25 01:37:11;;;;;;;0.75;0.75;;;;;;;-3.15;92.00;100716.63;5054328;28;20045;-81
2023/01/25 01:39:38;;;;;;;0.90;0.90;;;;;;;-3.16;91.96;100713.16;5049638;28;20510;-81
2023/01/25 01:42:05;;;;;;;0.93;0.93;;;;;;;-3.21;92.19;100696.81;5050559;28;20053;-81
2023/01/25 01:44:44;;;;;;;0.80;0.80;;;;;;;-3.19;92.41;100691.41;5049163;28;20518;-81
2023/01/25 01:47:34;;;;;;;0.90;0.90;;;;;;;-3.16;92.62;100699.94;5049270;28;20049;-81
2023/01/25 01:50:20;;;;;;;0.82;0.82;;;;;;;-3.16;92.54;100694.66;5049400;28;20075;-80
2023/01/25 01:52:49;;;;;;;0.85;0.85;;;;;;;-3.14;92.45;100700.69;5063167;28;20074;-80
2023/01/25 01:55:20;;;;;;;0.95;0.95;;;;;;;-3.14;92.35;100698.03;5069335;28;20055;-80
2023/01/25 01:57:50;;;;;;;0.85;0.85;;;;;;;-3.13;92.37;100691.78;5052272;28;20071;-80
2023/01/25 02:00:38;;;;;;;0.77;0.77;;;;;;;-3.14;92.64;100687.47;5069767;28;20052;-80
2023/01/25 02:03:05;;;;;;;0.80;0.80;;;;;;;-3.14;92.49;100698.03;5069392;28;20134;-82
2023/01/25 02:05:46;;;;;;;0.80;0.80;;;;;;;-3.15;92.33;100685.78;5070646;28;20055;-82
2023/01/25 02:08:14;;;;;;;0.80;0.80;;;;;;;-3.16;92.40;100683.28;5069496;28;20048;-82
2023/01/25 02:10:43;;;;;;;0.80;0.80;;;;;;;-3.22;92.51;100679.25;5070541;28;20060;-81
2023/01/25 02:13:10;;;;;;;0.82;0.82;;;;;;;-3.23;92.62;100674.94;5070369;28;20080;-82
2023/01/25 02:15:46;;;;;;;0.77;0.77;;;;;;;-3.23;92.44;100674.94;5068801;28;20049;-82
2023/01/25 02:18:13;;;;;;;1.10;1.10;;;;;;;-3.28;92.44;100677.09;5052521;28;20048;-80
2023/01/25 02:20:51;;;;;;;0.80;0.80;;;;;;;-3.35;92.65;100675.88;5052251;28;20729;-81
2023/01/25 02:24:00;;;;;;;0.80;0.80;;;;;;;-3.34;93.03;100665.19;5068933;28;20408;-80
2023/01/25 02:26:28;;;;;;;0.80;0.80;;;;;;;-3.34;93.00;100681.03;5061409;28;20419;-81
2023/01/25 02:29:01;;;;;;;0.80;0.80;;;;;;;-3.32;93.25;100684.41;5072546;28;20064;-80
2023/01/25 02:31:28;;;;;;;0.80;0.80;;;;;;;-3.32;93.22;100683.56;5076116;28;20048;-80
2023/01/25 02:33:55;;;;;;;0.90;0.90;;;;;;;-3.33;93.33;100681.88;5094437;28;20044;-80
2023/01/25 02:36:32;;;;;;;0.90;0.90;;;;;;;-3.38;93.24;100687.50;5093958;28;20098;-81
2023/01/25 02:39:17;;;;;;;0.73;0.73;;;;;;;-3.35;93.45;100679.34;5076598;28;20048;-81
2023/01/25 02:41:47;;;;;;;0.90;0.90;;;;;;;-3.35;93.52;100681.16;5092916;28;20113;-81
2023/01/25 02:44:26;;;;;;;0.70;0.70;;;;;;;-3.35;93.78;100689.06;5076489;28;20082;-80
2023/01/25 02:46:55;;;;;;;0.93;0.93;;;;;;;-3.35;93.75;100689.91;5094438;28;20524;-79
2023/01/25 02:49:22;;;;;;;0.73;0.73;;;;;;;-3.36;93.67;100677.66;5077404;28;20052;-81
2023/01/25 02:51:56;;;;;;;0.80;0.80;;;;;;;-3.33;93.74;100689.81;5073960;28;20793;-81
2023/01/25 02:54:25;;;;;;;0.90;0.90;;;;;;;-3.32;93.74;100680.91;5056520;28;20507;-80
2023/01/25 02:56:53;;;;;;;0.77;0.77;;;;;;;-3.35;93.74;100689.06;5072627;28;20105;-81
2023/01/25 02:59:22;;;;;;;0.90;0.90;;;;;;;-3.37;93.98;100686.53;5072013;28;20044;-81
2023/01/25 03:01:53;;;;;;;0.80;0.80;;;;;;;-3.34;93.98;100688.09;5072124;28;20036;-81
2023/01/25 03:04:21;;;;;;;0.82;0.82;;;;;;;-3.32;94.07;100699.38;5072069;28;20044;-81
2023/01/25 03:06:49;;;;;;;0.90;0.90;;;;;;;-3.33;93.97;100687.16;5073675;28;20063;-81
2023/01/25 03:09:17;;;;;;;1.05;1.05;;;;;;;-3.36;94.13;100682.13;5072061;28;20056;-82
2023/01/25 03:11:47;;;;;;;0.60;0.60;;;;;;;-3.33;93.90;100687.16;5072287;28;20503;-81
2023/01/25 03:14:15;;;;;;;0.68;0.68;;;;;;;-3.31;94.06;100680.81;5072046;28;20136;-81
2023/01/25 03:16:42;;;;;;;0.90;0.90;;;;;;;-3.30;94.41;100686.94;5071945;28;20530;-81
2023/01/25 03:19:10;;;;;;;0.80;0.80;;;;;;;-3.26;94.09;100691.03;5089174;28;20522;-82
2023/01/25 03:21:39;;;;;;;0.98;0.98;;;;;;;-3.24;94.05;100696.19;5088589;28;20060;-83
2023/01/25 03:24:08;;;;;;;0.70;0.70;;;;;;;-3.25;93.80;100684.78;5075393;28;20078;-82
2023/01/25 03:29:32;;;;;;;0.98;0.98;;;;;;;-3.30;93.95;100673.72;5089382;28;20075;-85
2023/01/25 03:32:01;;;;;;;0.75;0.75;;;;;;;-3.33;93.93;100655.47;5074267;28;20864;-79
2023/01/25 03:34:28;;;;;;;0.98;0.98;;;;;;;-3.27;94.28;100666.44;5067243;28;20048;-82
2023/01/25 03:36:57;;;;;;;0.70;0.70;;;;;;;-3.25;94.34;100662.81;5072080;28;20494;-81
2023/01/25 03:39:24;;;;;;;0.90;0.90;;;;;;;-3.25;94.34;100647.81;5071350;28;20045;-81
2023/01/25 03:41:51;;;;;;;0.70;0.70;;;;;;;-3.26;94.10;100646.16;5071927;28;20055;-79
2023/01/25 03:44:18;;;;;;;0.85;0.85;;;;;;;-3.27;94.37;100655.88;5072721;28;20087;-82
2023/01/25 03:46:46;;;;;;;0.80;0.80;;;;;;;-3.24;94.25;100660.06;5071658;28;20044;-83
2023/01/25 03:49:13;;;;;;;1.00;1.00;;;;;;;-3.20;94.19;100655.41;5072390;28;20525;-82
2023/01/25 03:51:42;;;;;;;0.82;0.82;;;;;;;-3.20;94.16;100655.41;5071057;28;20143;-82
2023/01/25 03:54:09;;;;;;;1.00;1.00;;;;;;;-3.23;94.37;100659.09;5071541;28;20423;-81
2023/01/25 03:56:37;;;;;;;0.98;0.98;;;;;;;-3.21;94.20;100665.13;5070673;28;20537;-82
2023/01/25 03:59:14;;;;;;;0.90;0.90;;;;;;;-3.20;94.03;100674.72;5070661;28;20056;-82
2023/01/25 04:01:42;;;;;;;0.90;0.90;;;;;;;-3.24;93.89;100673.28;5070324;28;20145;-83
2023/01/25 04:04:09;;;;;;;0.77;0.77;;;;;;;-3.21;93.90;100674.84;5072158;28;20060;-82
2023/01/25 04:06:39;;;;;;;0.90;0.90;;;;;;;-3.22;93.91;100671.34;5070392;28;20052;-81
2023/01/25 04:09:06;;;;;;;0.60;0.60;;;;;;;-3.20;93.87;100674.72;5070737;28;20384;-82
2023/01/25 04:11:39;;;;;;;0.90;0.90;;;;;;;-3.20;93.90;100671.25;5070575;28;20048;-81
2023/01/25 04:14:10;;;;;;;0.65;0.65;;;;;;;-3.23;93.98;100672.31;5070087;28;20056;-81
2023/01/25 04:16:44;;;;;;;0.90;0.90;;;;;;;-3.23;93.95;100671.47;5070672;28;20140;-82
2023/01/25 04:19:28;;;;;;;1.10;1.10;;;;;;;-3.29;93.83;100664.88;5070494;28;20060;-82
2023/01/25 04:21:58;;;;;;;0.80;0.80;;;;;;;-3.29;94.14;100664.88;5073221;28;20143;-81
2023/01/25 04:24:30;;;;;;;1.00;1.00;;;;;;;-3.32;94.13;100652.72;5074403;28;20473;-82
2023/01/25 04:26:57;;;;;;;0.80;0.80;;;;;;;-3.33;94.23;100648.38;5070177;28;20438;-82
2023/01/25 04:29:27;;;;;;;0.80;0.80;;;;;;;-3.35;94.04;100662.66;5070263;28;20079;-82
2023/01/25 04:32:08;;;;;;;0.75;0.75;;;;;;;-3.36;94.15;100651.25;5070536;28;20072;-82
2023/01/25 04:34:36;;;;;;;0.85;0.85;;;;;;;-3.35;94.23;100660.03;5069740;28;20050;-81
2023/01/25 04:37:04;;;;;;;0.90;0.90;;;;;;;-3.34;94.39;100656.41;5069598;28;20049;-82
2023/01/25 04:39:37;;;;;;;0.98;0.98;;;;;;;-3.33;94.45;100645.75;5069551;28;20049;-80
2023/01/25 04:42:04;;;;;;;0.95;0.95;;;;;;;-3.31;94.41;100649.13;5066346;28;20468;-81
2023/01/25 04:44:31;;;;;;;0.60;0.60;;;;;;;-3.24;94.17;100653.94;5049322;28;20049;-82
2023/01/25 04:46:58;;;;;;;0.80;0.80;;;;;;;-3.24;94.17;100660.06;5050067;28;20053;-82
2023/01/25 04:49:26;;;;;;;0.90;0.90;;;;;;;-3.21;94.44;100654.56;5053829;28;20505;-81
2023/01/25 04:51:53;;;;;;;0.80;0.80;;;;;;;-3.16;94.07;100667.44;5056745;28;20144;-81
2023/01/25 04:54:20;;;;;;;1.00;1.00;;;;;;;-3.13;94.14;100673.31;5055757;28;20500;-80
2023/01/25 04:56:47;;;;;;;0.90;0.90;;;;;;;-3.12;93.77;100667.06;5054070;28;20084;-81
2023/01/25 04:59:14;;;;;;;0.95;0.95;;;;;;;-3.15;93.31;100667.28;5067978;28;20067;-80
2023/01/25 05:01:41;;;;;;;0.90;0.90;;;;;;;-3.08;93.29;100665.88;5061159;28;20510;-81
2023/01/25 05:04:08;;;;;;;0.93;0.93;;;;;;;-3.06;92.82;100676.34;5058476;28;20083;-80
2023/01/25 05:06:42;;;;;;;0.85;0.85;;;;;;;-3.06;92.02;100677.16;5062645;28;20047;-80
2023/01/25 05:09:09;;;;;;;0.90;0.90;;;;;;;-3.06;91.42;100674.53;5067404;28;20048;-80
2023/01/25 05:11:38;;;;;;;0.98;0.98;;;;;;;-3.07;91.44;100672.00;5063725;28;20056;-80
2023/01/25 05:14:31;;;;;;;1.05;1.05;;;;;;;-3.05;90.73;100675.38;5052241;28;20052;-79
2023/01/25 05:16:59;;;;;;;0.80;0.80;;;;;;;-3.03;89.99;100675.25;5019359;28;20049;-85
2023/01/25 05:19:28;;;;;;;1.00;1.00;;;;;;;-3.06;89.22;100674.53;5062844;28;20472;-81
2023/01/25 05:21:58;;;;;;;1.10;1.10;;;;;;;-3.08;88.91;100681.72;5057151;28;20057;-80
2023/01/25 05:24:46;;;;;;;0.80;0.80;;;;;;;-3.16;88.07;100673.53;5052606;28;20491;-81
2023/01/25 05:27:17;;;;;;;0.98;0.98;;;;;;;-3.17;87.90;100676.28;5063837;28;20075;-80
2023/01/25 05:29:53;;;;;;;1.00;1.00;;;;;;;-3.23;88.03;100680.22;5081233;28;20041;-80
2023/01/25 05:32:59;;;;;;;1.02;1.02;;;;;;;-3.22;88.21;100679.25;4703502;28;10000013;-81
2023/01/25 05:35:26;;;;;;;0.90;0.90;;;;;;;-3.19;88.63;100679.06;5055618;28;20577;-80
2023/01/25 05:37:58;;;;;;;0.88;0.88;;;;;;;-3.15;88.61;100677.03;5052736;28;20069;-82
2023/01/25 05:40:30;;;;;;;0.88;0.88;;;;;;;-3.15;88.02;100690.22;5055012;28;20076;-86
2023/01/25 05:42:59;;;;;;;0.73;0.73;;;;;;;-3.15;87.96;100682.31;5051056;28;20597;-81
2023/01/25 05:45:29;;;;;;;0.80;0.80;;;;;;;-3.18;87.85;100683.38;5046886;28;20428;-80
2023/01/25 05:47:57;;;;;;;1.00;1.00;;;;;;;-3.20;87.69;100680.00;5045990;28;20494;-80
2023/01/25 05:50:25;;;;;;;0.90;0.90;;;;;;;-3.16;88.11;100688.56;5051856;28;20144;-81
2023/01/25 05:53:02;;;;;;;0.73;0.73;;;;;;;-3.14;88.06;100678.69;5044031;28;20135;-81
2023/01/25 05:55:29;;;;;;;0.82;0.82;;;;;;;-3.16;88.29;100667.44;5057332;28;20055;-83
2023/01/25 05:58:01;;;;;;;0.85;0.85;;;;;;;-3.16;88.33;100670.91;5061028;28;20768;-80
2023/01/25 06:00:28;;;;;;;0.90;0.90;;;;;;;-3.17;88.47;100666.56;5059898;28;20053;-82
2023/01/25 06:03:00;;;;;;;0.73;0.73;;;;;;;-3.14;88.14;100666.34;5055738;28;20049;-83
2023/01/25 06:05:30;;;;;;;;;;;;;;;-3.16;88.45;100668.25;5044505;28;20056;-81
2023/01/25 06:08:02;;;;;;;0.90;0.90;;;;;;;-3.14;88.60;100673.41;5056599;28;19970;-80
2023/01/25 06:10:38;;;;;;;0.90;0.90;;;;;;;-3.13;88.51;100668.03;5056900;28;20048;-79
2023/01/25 06:13:35;;;;;;;0.85;0.85;;;;;;;-3.08;88.54;100680.88;5056555;28;20048;-81
2023/01/25 06:16:03;;;;;;;0.80;0.80;;;;;;;-3.08;88.39;100679.09;5062172;28;20051;-80
2023/01/25 06:18:56;;;;;;;0.75;0.75;;;;;;;-3.20;88.27;100674.72;5062963;28;20122;-82
2023/01/25 06:21:35;;;;;;;0.90;0.90;;;;;;;-3.16;88.73;100678.00;5057662;28;20053;-80
2023/01/25 06:24:03;;;;;;;0.70;0.70;;;;;;;-3.12;88.56;100674.97;5066175;28;20056;-80
2023/01/25 06:26:30;;;;;;;0.88;0.88;;;;;;;-3.11;88.28;100674.03;5065861;28;20055;-80
2023/01/25 06:28:57;;;;;;;0.93;0.93;;;;;;;-3.11;88.13;100671.41;5063736;28;20052;-80
2023/01/25 06:31:25;;;;;;;0.90;0.90;;;;;;;-3.10;88.35;100670.44;5067210;28;20051;-80
2023/01/25 06:33:53;;;;;;;0.70;0.70;;;;;;;-3.15;88.15;100674.38;5056007;28;20827;-80
2023/01/25 06:36:21;;;;;;;0.70;0.70;;;;;;;-3.22;88.24;100660.78;5052829;28;20418;-80
2023/01/25 06:38:50;;;;;;;0.80;0.80;;;;;;;-3.18;88.38;100664.88;5050560;28;20146;-80
2023/01/25 06:41:18;;;;;;;1.08;1.08;;;;;;;-3.18;88.27;100669.34;5058235;28;20075;-79
2023/01/25 06:43:46;;;;;;;0.93;0.93;;;;;;;-3.22;88.58;100673.16;5064135;28;20045;-83
2023/01/25 06:46:14;;;;;;;1.10;1.10;;;;;;;-3.26;88.98;100667.28;5060312;28;20539;-80
2023/01/25 06:48:41;;;;;;;0.82;0.82;;;;;;;-3.27;88.48;100676.13;5064330;28;20102;-78
2023/01/25 06:51:11;;;;;;;0.77;0.77;;;;;;;-3.31;88.85;100672.06;5064243;28;20068;-79
2023/01/25 06:53:41;;;;;;;0.90;0.90;;;;;;;-3.28;88.98;100675.28;5054619;28;20052;-79
2023/01/25 06:56:10;;;;;;;0.80;0.80;;;;;;;-3.27;89.02;100681.41;5070794;28;20541;-80
2023/01/25 06:58:38;;;;;;;0.80;0.80;;;;;;;-3.23;88.91;100687.31;5063302;28;20131;-80
2023/01/25 07:01:13;;;;;;;0.90;0.90;;;;;;;-3.21;89.10;100680.97;5065618;28;20491;-80
2023/01/25 07:03:41;;;;;;;0.90;0.90;;;;;;;-3.28;89.00;100680.56;5065832;28;20850;-78
2023/01/25 07:06:10;;;;;;;0.90;0.90;;;;;;;-3.26;89.12;100677.84;5066127;28;20091;-80
2023/01/25 07:08:38;;;;;;;0.90;0.90;;;;;;;-3.26;89.19;100677.84;5066171;28;20424;-80
2023/01/25 07:11:09;;;;;;;0.80;0.80;;;;;;;-3.20;89.16;100681.81;5065138;28;20152;-81
2023/01/25 07:13:36;;;;;;;0.80;0.80;;;;;;;-3.20;89.24;100681.81;5064921;28;20051;-80
2023/01/25 07:16:05;;;;;;;0.80;0.80;;;;;;;-3.12;89.17;100682.91;5086579;28;20051;-81
2023/01/25 07:18:36;;;;;;;0.85;0.85;;;;;;;-3.06;89.34;100676.34;5089625;28;20055;-80
2023/01/25 07:21:08;;;;;;;0.88;0.88;;;;;;;-3.03;89.31;100672.63;5090022;28;20074;-79
2023/01/25 07:23:36;;;;;;;0.80;0.80;;;;;;;-3.03;89.16;100664.69;5088303;28;20495;-80
2023/01/25 07:26:04;;;;;;;1.02;1.02;;;;;;;-2.99;89.19;100669.59;5089892;28;20737;-80
2023/01/25 07:28:32;;;;;;;0.85;0.85;;;;;;;-2.97;89.36;100662.41;5089655;28;20083;-80
2023/01/25 07:31:05;;;;;;;0.88;0.88;;;;;;;-2.96;89.17;100668.53;5069645;28;20123;-80
2023/01/25 07:33:33;;;;;;;0.90;0.90;;;;;;;-2.92;89.04;100659.41;5068938;28;20113;-81
2023/01/25 07:36:03;;;;;;;0.80;0.80;;;;;;;-2.94;88.80;100666.63;5085245;28;20365;-80
2023/01/25 07:38:30;;;;;;;0.85;0.85;;;;;;;-3.00;88.57;100667.94;5069138;28;20053;-82
2023/01/25 07:40:57;;;;;;;1.00;1.00;;;;;;;-2.96;88.76;100668.53;5069103;28;20052;-81
2023/01/25 07:43:24;;;;;;;0.98;0.98;;;;;;;-2.90;88.61;100661.00;5067297;28;20540;-81
2023/01/25 07:45:52;;;;;;;0.80;0.80;;;;;;;-2.90;88.64;100657.50;5068370;28;20147;-81
2023/01/25 07:48:19;;;;;;;0.90;0.90;;;;;;;-2.95;88.36;100672.88;5069056;28;20049;-79
2023/01/25 07:51:10;;;;;;;0.85;0.85;;;;;;;-2.95;87.98;100670.22;5084758;28;20045;-81
2023/01/25 07:53:33;;;;;;;0.90;0.90;;;;;;;-2.96;88.20;100671.16;5068488;28;20052;-84
2023/01/25 07:56:00;;;;;;;0.80;0.80;;;;;;;-2.94;87.91;100662.16;5069292;28;20517;-79
2023/01/25 07:58:27;;;;;;;1.00;1.00;;;;;;;-2.95;87.73;100659.66;5068054;28;20045;-82
2023/01/25 08:00:54;;;;;;;0.90;0.90;;;;;;;-2.89;87.50;100664.47;5068714;28;20045;-84
2023/01/25 08:03:21;;;;;;;1.00;1.00;;;;;;;-2.92;87.49;100659.41;5068498;28;20052;-82
2023/01/25 08:05:52;;;;;;;0.70;0.70;;;;;;;-2.94;87.28;100653.41;5068590;28;20056;-82
2023/01/25 08:08:19;;;;;;;0.90;0.90;;;;;;;-2.97;87.17;100651.00;5068696;28;20048;-83
2023/01/25 08:10:46;;;;;;;0.80;0.80;;;;;;;-2.99;87.45;100652.91;5078332;28;20139;-82
2023/01/25 08:13:13;;;;;;;1.00;1.00;;;;;;;-2.89;87.59;100656.53;5092397;28;20058;-83
2023/01/25 08:15:40;;;;;;;0.80;0.80;;;;;;;-2.80;87.52;100657.66;5072090;28;20733;-81
2023/01/25 08:18:07;;;;;;;0.90;0.90;;;;;;;-2.77;87.25;100655.59;5052106;28;20052;-80
2023/01/25 08:20:34;;;;;;;1.00;1.00;;;;;;;-2.80;86.41;100657.66;5068133;28;20074;-81
2023/01/25 08:23:01;;;;;;;0.98;0.98;;;;;;;-2.82;86.28;100649.81;5068961;28;20114;-81
2023/01/25 08:25:28;;;;;;;1.00;1.00;;;;;;;-2.77;86.67;100646.84;5069578;28;20080;-82
2023/01/25 08:27:55;;;;;;;1.00;1.00;;;;;;;-2.78;86.19;100648.66;5068541;28;20185;-79
2023/01/25 08:30:22;;;;;;;0.90;0.90;;;;;;;-2.77;86.32;100654.75;5066757;28;20481;-81
2023/01/25 08:32:49;;;;;;;1.05;1.05;;;;;;;-2.74;86.06;100652.72;5068390;28;20048;-81
2023/01/25 08:35:16;;;;;;;0.82;0.82;;;;;;;-2.75;85.84;100653.69;5068259;28;20053;-82
2023/01/25 08:37:43;;;;;;;0.93;0.93;;;;;;;-2.74;85.81;100655.34;5068004;28;20053;-81
2023/01/25 08:40:13;;;;;;;0.80;0.80;;;;;;;-2.76;85.98;100648.50;5068316;28;20074;-82
2023/01/25 08:42:42;;;;;;;0.80;0.80;;;;;;;-2.74;86.16;100658.00;5067722;28;20044;-81
2023/01/25 08:45:09;;;;;;;1.00;1.00;;;;;;;-2.72;86.02;100650.81;5067810;28;20076;-81
2023/01/25 08:47:39;;;;;;;0.77;0.77;;;;;;;-2.80;85.76;100649.72;5067417;28;20576;-80
2023/01/25 08:50:06;;;;;;;0.90;0.90;;;;;;;-2.91;86.28;100647.88;5068012;28;20044;-82
2023/01/25 08:52:34;;;;;;;0.80;0.80;;;;;;;-3.01;86.70;100633.69;5067651;28;20575;-82
2023/01/25 08:55:01;;;;;;;1.00;1.00;;;;;;;-3.00;87.10;100628.31;5066318;28;20509;-81
2023/01/25 08:57:29;;;;;;;0.80;0.80;;;;;;;-2.98;87.23;100633.50;5066758;28;20514;-82
2023/01/25 08:59:56;;;;;;;1.00;1.00;;;;;;;-2.93;87.53;100626.88;5067336;28;20137;-81
2023/01/25 09:02:23;;;;;;;0.93;0.93;;;;;;;-2.86;87.73;100624.59;5067326;28;20115;-83
2023/01/25 09:04:50;;;;;;;1.00;1.00;;;;;;;-2.80;87.39;100616.19;5059770;28;20052;-79
2023/01/25 09:07:17;;;;;;;0.90;0.90;;;;;;;-2.85;87.34;100613.91;5059117;28;20071;-79
2023/01/25 09:09:45;;;;;;;0.90;0.90;;;;;;;-2.83;87.56;100608.53;5062841;28;20188;-82
2023/01/25 09:12:12;;;;;;;0.70;0.70;;;;;;;-2.75;87.52;100616.69;5062682;28;20056;-80
2023/01/25 09:14:40;;;;;;;0.90;0.90;;;;;;;-2.73;87.20;100606.84;5057516;28;20053;-81
2023/01/25 09:17:11;;;;;;;0.90;0.90;;;;;;;-2.81;87.04;100593.41;5046692;28;20060;-80
2023/01/25 09:19:38;;;;;;;0.93;0.93;;;;;;;-2.85;87.15;100591.94;5058534;28;20057;-81
2023/01/25 09:22:05;;;;;;;1.00;1.00;;;;;;;-2.87;87.30;100593.84;5068872;28;20392;-79
2023/01/25 09:24:33;;;;;;;0.90;0.90;;;;;;;-2.84;87.39;100589.19;5062149;28;20052;-79
2023/01/25 09:27:02;;;;;;;1.10;1.10;;;;;;;-2.78;87.58;100587.88;5058491;28;20507;-79
2023/01/25 09:29:29;;;;;;;0.88;0.88;;;;;;;-2.79;86.74;100591.44;5059724;28;20049;-80
2023/01/25 09:32:00;;;;;;;0.90;0.90;;;;;;;-2.80;86.57;100589.78;5049344;28;20404;-81
2023/01/25 09:34:32;;;;;;;1.02;1.02;;;;;;;-2.76;86.64;100600.94;5059026;28;20503;-80
2023/01/25 09:36:59;;;;;;;0.90;0.90;;;;;;;-2.80;86.38;100595.06;5061398;28;20049;-80
2023/01/25 09:39:26;;;;;;;0.77;0.77;;;;;;;-2.77;85.96;100592.19;5039331;28;20178;-80
2023/01/25 09:42:05;;;;;;;1.00;1.00;;;;;;;-2.75;85.53;100587.63;5061728;28;20056;-80
2023/01/25 09:44:46;;;;;;;0.90;0.90;;;;;;;-2.73;85.50;100583.06;5061818;28;20056;-80
2023/01/25 09:47:20;;;;;;;1.08;1.08;;;;;;;-2.75;84.35;100577.03;5068142;28;20048;-80
2023/01/25 09:50:09;;;;;;;0.80;0.80;;;;;;;-2.86;84.43;100569.97;5061500;28;20102;-80
2023/01/25 09:53:13;;;;;;;0.68;0.68;;;;;;;-2.85;84.11;100563.72;5069547;28;20052;-81
2023/01/25 09:55:40;;;;;;;1.00;1.00;;;;;;;-2.87;84.15;100559.50;5064961;28;20052;-81
2023/01/25 09:58:14;;;;;;;0.82;0.82;;;;;;;-2.81;83.77;100552.91;5054171;28;20055;-80
2023/01/25 10:00:44;;;;;;;0.90;0.90;;;;;;;-2.74;83.60;100557.56;5061234;28;20465;-81
2023/01/25 10:03:21;;;;;;;0.85;0.85;;;;;;;-2.68;83.16;100553.63;5062772;28;20075;-83
2023/01/25 10:05:52;;;;;;;0.70;0.70;;;;;;;-2.78;82.40;100535.00;5068246;28;20143;-82
2023/01/25 10:08:30;;;;;;;0.80;0.80;;;;;;;-2.84;82.42;100532.84;5068821;28;20071;-84
2023/01/25 10:11:07;;;;;;;0.90;0.90;;;;;;;-2.84;82.31;100530.19;5062692;28;20573;-81
2023/01/25 10:13:34;;;;;;;1.00;1.00;;;;;;;-2.87;82.23;100525.16;5044886;28;20048;-83
2023/01/25 10:16:33;;;;;;;0.80;0.80;;;;;;;-2.73;82.33;100526.72;5063832;28;20486;-82
2023/01/25 10:19:35;;;;;;;0.95;0.95;;;;;;;-2.63;82.17;100517.09;5057539;28;20111;-82
2023/01/25 10:22:23;;;;;;;0.95;0.95;;;;;;;-2.68;81.54;100498.13;5006811;28;20405;-83
2023/01/25 10:25:16;;;;;;;1.02;1.02;;;;;;;-2.66;81.10;100507.63;5006234;28;20046;-83
2023/01/25 10:27:56;;;;;;;0.95;0.95;;;;;;;-2.60;80.89;100505.44;5013991;28;20055;-82
2023/01/25 10:30:33;;;;;;;0.90;0.90;;;;;;;-2.50;81.08;100509.03;4985977;28;20508;-82
2023/01/25 10:33:10;;;;;;;1.10;1.10;;;;;;;-2.38;80.90;100505.41;5003641;28;20424;-82
2023/01/25 10:35:38;;;;;;;0.88;0.88;;;;;;;-2.36;80.75;100511.38;5023484;28;20054;-83
2023/01/25 10:38:16;;;;;;;0.90;0.90;;;;;;;-2.40;79.77;100500.22;5006386;28;20085;-82
2023/01/25 10:40:49;;;;;;;1.00;1.00;;;;;;;-2.45;79.62;100498.91;5014963;28;20111;-84
2023/01/25 10:43:21;;;;;;;0.90;0.90;;;;;;;-2.47;79.49;100506.13;4998846;28;20453;-82
2023/01/25 10:45:49;;;;;;;0.90;0.90;;;;;;;-2.56;79.71;100512.16;5018893;28;20126;-84
2023/01/25 10:48:32;;;;;;;0.90;0.90;;;;;;;-2.61;79.79;100504.56;5017783;28;20045;-84
2023/01/25 10:50:59;;;;;;;1.00;1.00;;;;;;;-2.62;80.07;100498.47;5005757;28;20054;-82
2023/01/25 10:53:38;;;;;;;1.02;1.02;;;;;;;-2.64;80.24;100500.38;5007316;28;20416;-83
2023/01/25 10:56:07;;;;;;;0.90;0.90;;;;;;;-2.64;80.55;100494.25;5020717;28;20161;-83
2023/01/25 10:58:39;;;;;;;0.98;0.98;;;;;;;-2.56;80.61;100491.00;5062958;28;20045;-83
2023/01/25 11:01:12;;;;;;;1.00;1.00;;;;;;;-2.51;80.62;100494.09;5065430;28;20495;-82
2023/01/25 11:03:43;;;;;;;1.10;1.10;;;;;;;-2.50;80.07;100488.72;5058528;28;20052;-82
2023/01/25 11:06:11;;;;;;;1.10;1.10;;;;;;;-2.46;79.86;100482.19;5053640;28;20053;-82
2023/01/25 11:08:40;;;;;;;1.00;1.00;;;;;;;-2.47;79.41;100474.41;5056935;28;20067;-81
2023/01/25 11:11:46;;;;;;;1.00;1.00;;;;;;;-2.35;79.51;100478.69;5063743;28;20045;-82
2023/01/25 11:14:16;;;;;;;0.90;0.90;;;;;;;-2.27;78.47;100465.69;5026372;28;20049;-82
2023/01/25 11:16:47;;;;;;;0.90;0.90;;;;;;;-2.17;77.85;100462.28;5024897;28;20135;-82
2023/01/25 11:19:35;;;;;;;0.90;0.90;;;;;;;-2.16;76.50;100477.19;5025614;28;20503;-84
2023/01/25 11:22:19;;;;;;;0.90;0.90;;;;;;;-2.27;76.26;100465.69;5027983;28;20073;-83
2023/01/25 11:24:46;;;;;;;0.90;0.90;;;;;;;-2.43;76.90;100462.59;5040267;28;20076;-84
2023/01/25 11:27:21;;;;;;;0.90;0.90;;;;;;;-2.41;77.26;100465.97;5028313;28;20424;-83
2023/01/25 11:30:10;;;;;;;1.10;1.10;;;;;;;-2.37;77.04;100451.53;5026505;28;20052;-82
2023/01/25 11:32:39;;;;;;;1.00;1.00;;;;;;;-2.24;76.88;100464.59;5026782;28;20045;-84
2023/01/25 11:35:14;;;;;;;0.80;0.80;;;;;;;-2.17;75.80;100454.34;5029609;28;20157;-82
2023/01/25 11:38:07;;;;;;;0.90;0.90;;;;;;;-2.24;76.03;100460.13;5013850;28;20106;-84
2023/01/25 11:41:13;;;;;;;1.00;1.00;;;;;;;-2.31;75.92;100452.81;5023861;28;20052;-83
2023/01/25 11:43:55;;;;;;;1.00;1.00;;;;;;;-2.33;76.13;100449.47;5019582;28;20124;-82
2023/01/25 11:46:40;;;;;;;0.90;0.90;;;;;;;-2.36;75.94;100434.69;5036564;28;20064;-83